createdAt,value
2022-10-31T00:01:38.668Z,99.90
2022-10-31T00:04:06.981Z,99.90
2022-10-31T00:06:34.139Z,99.90
2022-10-31T00:09:04.666Z,99.90
2022-10-31T00:11:32.135Z,99.90
2022-10-31T00:14:00.467Z,99.90
2022-10-31T00:16:30.062Z,99.90
2022-10-31T00:19:03.881Z,99.90
2022-10-31T00:21:32.757Z,99.90
2022-10-31T00:24:01.523Z,99.90
2022-10-31T00:26:30.710Z,99.90
2022-10-31T00:29:00.061Z,99.90
2022-10-31T00:33:56.632Z,99.90
2022-10-31T00:36:23.781Z,99.90
2022-10-31T00:38:50.867Z,99.90
2022-10-31T00:41:19.342Z,99.90
2022-10-31T00:43:46.848Z,99.90
2022-10-31T00:46:14.859Z,99.90
2022-10-31T00:48:42.941Z,99.90
2022-10-31T00:51:10.359Z,99.90
2022-10-31T00:56:05.822Z,99.90
2022-10-31T00:58:32.831Z,99.90
2022-10-31T01:03:32.015Z,99.90
2022-10-31T01:06:07.566Z,99.90
2022-10-31T01:08:37.248Z,99.90
2022-10-31T01:11:18.880Z,99.90
2022-10-31T01:16:19.413Z,99.90
2022-10-31T01:18:46.979Z,99.90
2022-10-31T01:21:27.927Z,99.90
2022-10-31T01:23:58.555Z,99.90
2022-10-31T01:26:31.515Z,99.90
2022-10-31T01:29:03.959Z,99.90
2022-10-31T01:31:39.664Z,99.90
2022-10-31T01:34:07.734Z,99.90
2022-10-31T01:36:38.815Z,99.90
2022-10-31T01:39:13.023Z,99.90
2022-10-31T01:41:46.540Z,99.90
2022-10-31T01:44:16.251Z,99.90
2022-10-31T01:49:34.136Z,99.90
2022-10-31T01:52:17.892Z,99.90
2022-10-31T01:55:15.599Z,99.90
2022-10-31T01:57:50.523Z,99.90
2022-10-31T02:00:21.240Z,99.90
2022-10-31T02:02:51.265Z,99.90
2022-10-31T02:05:26.231Z,99.90
2022-10-31T02:08:17.664Z,99.90
2022-10-31T02:10:45.472Z,99.90
2022-10-31T02:13:14.273Z,99.90
2022-10-31T02:15:52.564Z,99.90
2022-10-31T02:18:21.669Z,99.90
2022-10-31T02:21:24.529Z,99.90
2022-10-31T02:24:46.010Z,99.90
2022-10-31T02:28:12.057Z,99.90
2022-10-31T02:31:20.896Z,99.90
2022-10-31T02:34:21.184Z,99.90
2022-10-31T02:37:04.805Z,99.90
2022-10-31T02:40:12.033Z,99.90
2022-10-31T02:43:21.149Z,99.90
2022-10-31T02:46:48.799Z,99.90
2022-10-31T02:50:03.969Z,99.90
2022-10-31T02:52:35.906Z,99.90
2022-10-31T02:55:26.143Z,99.90
2022-10-31T02:58:15.644Z,99.90
2022-10-31T03:01:04.496Z,99.90
2022-10-31T03:04:42.661Z,99.90
2022-10-31T03:08:01.571Z,99.90
2022-10-31T03:10:59.045Z,99.90
2022-10-31T03:13:52.146Z,99.90
2022-10-31T03:16:48.518Z,99.90
2022-10-31T03:19:43.884Z,99.90
2022-10-31T03:22:22.450Z,99.90
2022-10-31T03:24:51.053Z,99.90
2022-10-31T03:27:27.557Z,99.90
2022-10-31T03:29:58.746Z,99.90
2022-10-31T03:32:39.913Z,99.90
2022-10-31T03:35:14.294Z,99.90
2022-10-31T03:37:43.518Z,99.90
2022-10-31T03:40:19.625Z,99.90
2022-10-31T03:42:59.306Z,99.90
2022-10-31T03:45:31.844Z,99.90
2022-10-31T03:48:02.485Z,99.90
2022-10-31T03:51:21.948Z,99.90
2022-10-31T03:54:38.251Z,99.90
2022-10-31T03:57:42.191Z,99.90
2022-10-31T04:00:14.908Z,99.90
2022-10-31T04:03:08.664Z,99.90
2022-10-31T04:05:39.555Z,99.90
2022-10-31T04:08:16.651Z,99.90
2022-10-31T04:10:50.711Z,99.90
2022-10-31T04:13:30.174Z,99.90
2022-10-31T04:16:06.766Z,99.90
2022-10-31T04:18:34.139Z,99.90
2022-10-31T04:21:08.218Z,99.90
2022-10-31T04:23:37.391Z,99.90
2022-10-31T04:26:15.131Z,99.90
2022-10-31T04:31:13.747Z,99.90
2022-10-31T04:33:41.710Z,99.90
2022-10-31T04:38:36.568Z,99.90
2022-10-31T04:41:10.333Z,99.90
2022-10-31T04:43:50.720Z,99.90
2022-10-31T04:46:18.115Z,99.90
2022-10-31T04:51:12.883Z,99.90
2022-10-31T04:53:40.905Z,99.90
2022-10-31T04:56:30.636Z,99.90
2022-10-31T04:59:03.711Z,99.90
2022-10-31T05:01:42.134Z,99.90
2022-10-31T05:04:11.923Z,99.90
2022-10-31T05:06:39.061Z,99.90
2022-10-31T05:09:06.229Z,99.90
2022-10-31T05:11:33.245Z,99.90
2022-10-31T05:14:10.250Z,99.90
2022-10-31T05:17:03.412Z,99.90
2022-10-31T05:19:59.461Z,99.90
2022-10-31T05:22:59.489Z,99.90
2022-10-31T05:25:30.219Z,99.90
2022-10-31T05:27:58.315Z,99.90
2022-10-31T05:30:31.246Z,99.90
2022-10-31T05:33:00.185Z,99.90
2022-10-31T05:35:48.641Z,99.90
2022-10-31T05:38:36.692Z,99.90
2022-10-31T05:46:11.532Z,99.90
2022-10-31T05:49:07.667Z,99.90
2022-10-31T05:54:45.006Z,99.90
2022-10-31T05:57:12.156Z,99.90
2022-10-31T05:59:39.148Z,99.90
2022-10-31T06:02:06.163Z,99.90
2022-10-31T06:04:51.871Z,99.90
2022-10-31T06:07:19.724Z,99.90
2022-10-31T06:09:46.789Z,99.90
2022-10-31T06:12:13.968Z,99.90
2022-10-31T06:15:09.431Z,99.90
2022-10-31T06:17:37.119Z,99.90
2022-10-31T06:22:59.358Z,99.90
2022-10-31T06:27:55.323Z,99.90
2022-10-31T06:30:29.297Z,99.90
2022-10-31T06:33:03.914Z,99.90
2022-10-31T06:35:32.394Z,99.90
2022-10-31T06:38:00.974Z,99.90
2022-10-31T06:40:39.605Z,99.90
2022-10-31T06:43:22.414Z,99.90
2022-10-31T06:45:58.186Z,99.90
2022-10-31T06:48:29.035Z,99.90
2022-10-31T06:51:31.319Z,99.90
2022-10-31T06:56:27.474Z,99.90
2022-10-31T06:58:56.970Z,99.90
2022-10-31T07:01:50.171Z,99.90
2022-10-31T07:04:19.966Z,99.90
2022-10-31T07:09:20.239Z,99.90
2022-10-31T07:11:48.683Z,99.90
2022-10-31T07:14:16.201Z,99.90
2022-10-31T07:16:43.451Z,99.90
2022-10-31T07:19:13.735Z,99.90
2022-10-31T07:21:40.813Z,99.90
2022-10-31T07:24:08.723Z,99.90
2022-10-31T07:26:46.803Z,99.90
2022-10-31T07:29:15.591Z,99.90
2022-10-31T07:31:44.911Z,99.90
2022-10-31T07:34:18.654Z,99.90
2022-10-31T07:37:10.225Z,99.90
2022-10-31T07:39:49.199Z,99.90
2022-10-31T07:42:19.979Z,99.90
2022-10-31T07:44:47.013Z,99.90
2022-10-31T07:47:41.784Z,99.90
2022-10-31T07:50:36.682Z,99.90
2022-10-31T07:53:38.587Z,99.90
2022-10-31T07:56:26.127Z,99.90
2022-10-31T07:58:53.779Z,99.90
2022-10-31T08:01:20.788Z,99.90
2022-10-31T08:04:04.318Z,99.90
2022-10-31T08:06:53.036Z,99.90
2022-10-31T08:09:30.567Z,99.90
2022-10-31T08:12:02.485Z,99.90
2022-10-31T08:14:30.929Z,99.90
2022-10-31T08:16:58.697Z,99.90
2022-10-31T08:19:33.517Z,99.90
2022-10-31T08:22:01.628Z,99.90
2022-10-31T08:24:29.198Z,99.90
2022-10-31T08:26:58.696Z,99.90
2022-10-31T08:29:25.916Z,99.90
2022-10-31T08:31:52.988Z,99.90
2022-10-31T08:34:38.670Z,99.90
2022-10-31T08:37:24.384Z,99.90
2022-10-31T08:39:54.661Z,99.90
2022-10-31T08:42:22.657Z,99.90
2022-10-31T08:44:49.689Z,99.90
2022-10-31T08:47:20.649Z,99.90
2022-10-31T08:52:16.894Z,99.90
2022-10-31T08:54:48.202Z,99.90
2022-10-31T08:57:47.645Z,99.90
2022-10-31T09:03:40.190Z,99.90
2022-10-31T09:06:09.935Z,99.90
2022-10-31T09:08:37.978Z,99.90
2022-10-31T09:11:07.385Z,99.90
2022-10-31T09:13:53.998Z,99.90
2022-10-31T09:16:20.981Z,99.90
2022-10-31T09:18:48.173Z,21.70
2022-10-31T09:21:17.321Z,1.00
2022-10-31T09:23:44.477Z,1.00
2022-10-31T09:26:11.598Z,1.00
2022-10-31T09:28:42.215Z,1.00
2022-10-31T09:31:12.236Z,99.90
2022-10-31T09:33:57.651Z,99.90
2022-10-31T09:36:41.263Z,87.70
2022-10-31T09:39:12.736Z,99.90
2022-10-31T09:42:12.973Z,1.00
2022-10-31T09:45:24.382Z,1.00
2022-10-31T09:48:29.399Z,99.90
2022-10-31T09:51:09.723Z,1.00
2022-10-31T09:54:17.065Z,99.90
2022-10-31T09:56:45.575Z,1.00
2022-10-31T09:59:37.050Z,1.00
2022-10-31T10:02:52.664Z,99.90
2022-10-31T10:06:10.250Z,99.90
2022-10-31T10:08:57.910Z,99.90
2022-10-31T10:12:16.415Z,99.90
2022-10-31T10:15:49.502Z,99.90
2022-10-31T10:19:05.116Z,99.90
2022-10-31T10:21:46.323Z,99.90
2022-10-31T10:25:02.943Z,1.00
2022-10-31T10:28:03.391Z,1.00
2022-10-31T10:30:51.818Z,1.00
2022-10-31T10:33:38.199Z,1.00
2022-10-31T10:36:15.515Z,1.00
2022-10-31T10:39:02.036Z,1.00
2022-10-31T10:41:34.677Z,1.00
2022-10-31T10:44:02.444Z,99.90
2022-10-31T10:47:03.400Z,1.00
2022-10-31T10:49:52.820Z,1.00
2022-10-31T10:53:33.409Z,1.00
2022-10-31T10:56:31.815Z,1.00
2022-10-31T10:58:59.065Z,99.90
2022-10-31T11:01:26.551Z,99.90
2022-10-31T11:03:53.559Z,1.00
2022-10-31T11:06:26.908Z,1.00
2022-10-31T11:08:54.599Z,1.00
2022-10-31T11:11:32.759Z,1.00
2022-10-31T11:14:18.723Z,99.90
2022-10-31T11:16:56.831Z,5.00
2022-10-31T11:19:28.299Z,1.00
2022-10-31T11:22:09.239Z,1.00
2022-10-31T11:24:42.507Z,99.90
2022-10-31T11:27:25.748Z,99.90
2022-10-31T11:29:56.865Z,99.90
2022-10-31T11:32:30.651Z,6.40
2022-10-31T11:35:10.867Z,1.00
2022-10-31T11:37:45.448Z,1.00
2022-10-31T11:40:27.154Z,1.00
2022-10-31T11:42:59.649Z,1.00
2022-10-31T11:45:35.608Z,99.90
2022-10-31T11:48:21.241Z,99.90
2022-10-31T11:50:57.692Z,99.90
2022-10-31T11:53:35.076Z,99.90
2022-10-31T11:56:16.557Z,97.30
2022-10-31T11:58:44.152Z,2.60
2022-10-31T12:01:30.404Z,1.00
2022-10-31T12:04:14.016Z,1.00
2022-10-31T12:06:47.375Z,1.00
2022-10-31T12:09:29.236Z,1.00
2022-10-31T12:12:49.622Z,1.00
2022-10-31T12:15:41.725Z,1.00
2022-10-31T12:18:57.732Z,1.00
2022-10-31T12:22:09.028Z,1.00
2022-10-31T12:25:13.975Z,1.00
2022-10-31T12:28:18.088Z,1.00
2022-10-31T12:31:16.204Z,99.90
2022-10-31T12:34:35.129Z,99.90
2022-10-31T12:37:40.966Z,99.90
2022-10-31T12:41:06.526Z,99.90
2022-10-31T12:44:13.852Z,99.90
2022-10-31T12:47:35.750Z,99.90
2022-10-31T12:50:42.790Z,99.90
2022-10-31T12:54:16.101Z,99.90
2022-10-31T12:57:27.634Z,92.60
2022-10-31T13:00:19.277Z,54.70
2022-10-31T13:03:20.127Z,29.60
2022-10-31T13:05:57.650Z,5.80
2022-10-31T13:08:58.537Z,1.00
2022-10-31T13:11:40.154Z,7.70
2022-10-31T13:14:30.993Z,10.40
2022-10-31T13:17:00.623Z,12.10
2022-10-31T13:19:53.254Z,20.90
2022-10-31T13:22:28.462Z,31.60
2022-10-31T13:25:15.921Z,36.30
2022-10-31T13:27:58.029Z,32.50
2022-10-31T13:30:33.043Z,33.90
2022-10-31T13:33:15.099Z,30.50
2022-10-31T13:36:18.308Z,20.00
2022-10-31T13:39:47.878Z,20.50
2022-10-31T13:42:55.115Z,5.80
2022-10-31T13:45:26.926Z,2.80
2022-10-31T13:48:20.743Z,1.00
2022-10-31T13:51:12.642Z,1.00
2022-10-31T13:54:37.518Z,1.00
2022-10-31T13:57:29.029Z,1.00
2022-10-31T14:00:35.642Z,1.00
2022-10-31T14:03:03.098Z,1.00
2022-10-31T14:05:36.779Z,1.00
2022-10-31T14:08:09.839Z,1.00
2022-10-31T14:10:48.051Z,1.00
2022-10-31T14:13:26.108Z,1.00
2022-10-31T14:16:02.635Z,1.00
2022-10-31T14:18:44.916Z,1.00
2022-10-31T14:21:32.219Z,1.00
2022-10-31T14:23:59.223Z,1.00
2022-10-31T14:26:27.092Z,1.00
2022-10-31T14:29:23.200Z,1.00
2022-10-31T14:31:59.532Z,1.00
2022-10-31T14:34:56.778Z,1.00
2022-10-31T14:38:36.300Z,1.00
2022-10-31T14:41:49.857Z,1.00
2022-10-31T14:44:55.919Z,10.30
2022-10-31T14:48:06.862Z,10.10
2022-10-31T14:50:55.801Z,58.60
2022-10-31T14:53:30.254Z,99.90
2022-10-31T14:56:02.767Z,99.90
2022-10-31T14:58:45.156Z,99.90
2022-10-31T15:01:34.191Z,99.90
2022-10-31T15:04:23.586Z,99.90
2022-10-31T15:07:09.192Z,99.90
2022-10-31T15:09:38.818Z,99.90
2022-10-31T15:12:30.680Z,99.90
2022-10-31T15:14:59.336Z,99.90
2022-10-31T15:17:27.413Z,99.90
2022-10-31T15:19:55.165Z,99.90
2022-10-31T15:22:32.557Z,99.90
2022-10-31T15:24:59.637Z,99.90
2022-10-31T15:29:57.475Z,99.90
2022-10-31T15:32:28.405Z,99.90
2022-10-31T15:34:57.741Z,99.90
2022-10-31T15:37:27.491Z,1.00
2022-10-31T15:39:54.550Z,1.00
2022-10-31T15:42:31.237Z,1.00
2022-10-31T15:45:24.755Z,1.00
2022-10-31T15:48:16.846Z,1.00
2022-10-31T15:51:01.506Z,1.00
2022-10-31T15:53:51.023Z,1.00
2022-10-31T15:56:32.122Z,1.00
2022-10-31T15:59:01.924Z,1.00
2022-10-31T16:01:35.387Z,1.00
2022-10-31T16:04:13.222Z,1.00
2022-10-31T16:06:40.535Z,1.00
2022-10-31T16:09:24.999Z,1.00
2022-10-31T16:14:32.826Z,99.90
2022-10-31T16:17:02.397Z,99.90
2022-10-31T16:20:06.229Z,99.90
2022-10-31T16:22:39.911Z,21.60
2022-10-31T16:25:27.626Z,1.00
2022-10-31T16:28:06.062Z,1.00
2022-10-31T16:30:48.403Z,38.40
2022-10-31T16:33:36.854Z,48.80
2022-10-31T16:36:36.175Z,99.90
2022-10-31T16:39:04.821Z,99.90
2022-10-31T16:41:40.149Z,99.90
2022-10-31T16:44:24.174Z,99.90
2022-10-31T16:47:14.374Z,99.90
2022-10-31T16:49:43.418Z,99.90
2022-10-31T16:52:10.553Z,99.90
2022-10-31T16:54:38.051Z,99.90
2022-10-31T16:57:06.965Z,99.90
2022-10-31T16:59:35.355Z,99.90
2022-10-31T17:02:05.312Z,99.90
2022-10-31T17:04:32.424Z,99.90
2022-10-31T17:06:59.460Z,99.90
2022-10-31T17:09:26.716Z,1.00
2022-10-31T17:11:54.960Z,1.00
2022-10-31T17:14:22.307Z,1.00
2022-10-31T17:19:17.016Z,1.00
2022-10-31T17:21:44.155Z,99.90
2022-10-31T17:24:15.283Z,99.90
2022-10-31T17:26:43.031Z,1.00
2022-10-31T17:29:10.370Z,1.00
2022-10-31T17:31:39.074Z,41.90
2022-10-31T17:34:08.437Z,99.90
2022-10-31T17:36:37.572Z,99.90
2022-10-31T17:39:07.352Z,1.00
2022-10-31T17:41:34.343Z,1.00
2022-10-31T17:44:01.421Z,1.00
2022-10-31T17:51:23.601Z,1.00
2022-10-31T17:58:45.652Z,99.90
2022-10-31T18:01:17.130Z,1.00
2022-10-31T18:06:14.440Z,99.90
2022-10-31T18:08:41.936Z,1.00
2022-10-31T18:11:21.562Z,1.00
2022-10-31T18:16:22.509Z,1.00
2022-10-31T18:18:58.388Z,99.90
2022-10-31T18:21:26.364Z,1.00
2022-10-31T18:24:00.133Z,1.00
2022-10-31T18:26:28.463Z,1.00
2022-10-31T18:33:57.201Z,11.10
2022-10-31T18:36:24.917Z,99.90
2022-10-31T18:38:52.136Z,99.90
2022-10-31T18:41:19.266Z,92.00
2022-10-31T18:43:46.242Z,24.90
2022-10-31T18:46:17.198Z,90.80
2022-10-31T18:48:45.324Z,36.70
2022-10-31T18:51:14.628Z,99.90
2022-10-31T18:56:11.233Z,99.90
2022-10-31T18:58:38.491Z,1.00
2022-10-31T19:01:16.928Z,1.00
2022-10-31T19:06:11.929Z,1.00
2022-10-31T19:08:39.897Z,1.00
2022-10-31T19:11:13.260Z,1.00
2022-10-31T19:13:42.222Z,1.00
2022-10-31T19:16:14.686Z,1.00
2022-10-31T19:18:43.734Z,1.00
2022-10-31T19:21:17.594Z,1.00
2022-10-31T19:23:45.878Z,1.00
2022-10-31T19:26:14.351Z,1.00
2022-10-31T19:28:42.393Z,1.00
2022-10-31T19:31:10.644Z,1.00
2022-10-31T19:33:38.181Z,1.00
2022-10-31T19:36:16.746Z,1.00
2022-10-31T19:38:47.576Z,1.00
2022-10-31T19:41:22.567Z,1.00
2022-10-31T19:43:49.897Z,1.00
2022-10-31T19:46:40.551Z,12.20
2022-10-31T19:49:09.080Z,58.10
2022-10-31T19:51:35.996Z,73.90
2022-10-31T19:56:30.610Z,94.70
2022-10-31T19:58:59.699Z,97.90
2022-10-31T20:03:54.579Z,99.90
2022-10-31T20:08:57.427Z,99.90
2022-10-31T20:11:28.256Z,99.90
2022-10-31T20:13:59.719Z,99.90
2022-10-31T20:16:28.094Z,99.90
2022-10-31T20:18:56.250Z,99.90
2022-10-31T20:21:27.602Z,99.90
2022-10-31T20:24:04.012Z,99.90
2022-10-31T20:26:33.460Z,99.90
2022-10-31T20:29:02.145Z,99.90
2022-10-31T20:31:34.847Z,99.90
2022-10-31T20:41:26.306Z,99.90
2022-10-31T20:43:53.413Z,99.90
2022-10-31T20:46:26.542Z,99.90
2022-10-31T20:48:54.746Z,99.90
2022-10-31T20:51:27.848Z,99.90
2022-10-31T20:53:57.841Z,99.90
2022-10-31T20:56:27.821Z,99.90
2022-10-31T20:58:56.937Z,99.90
2022-10-31T21:01:31.335Z,99.90
2022-10-31T21:03:59.187Z,99.90
2022-10-31T21:06:27.582Z,99.90
2022-10-31T21:08:56.033Z,99.90
2022-10-31T21:11:27.652Z,99.90
2022-10-31T21:13:54.949Z,99.90
2022-10-31T21:16:29.939Z,99.90
2022-10-31T21:18:59.668Z,99.90
2022-10-31T21:21:32.843Z,99.90
2022-10-31T21:26:51.368Z,99.90
2022-10-31T21:29:19.823Z,99.90
2022-10-31T21:31:47.913Z,99.90
2022-10-31T21:34:15.258Z,99.90
2022-10-31T21:36:42.229Z,99.90
2022-10-31T21:39:10.281Z,99.90
2022-10-31T21:41:37.404Z,99.90
2022-10-31T21:44:04.620Z,99.90
2022-10-31T21:46:33.603Z,99.90
2022-10-31T21:49:03.841Z,99.90
2022-10-31T21:51:35.944Z,99.90
2022-10-31T21:54:22.270Z,99.90
2022-10-31T21:56:49.409Z,99.90
2022-10-31T22:01:44.127Z,99.90
2022-10-31T22:06:39.149Z,99.90
2022-10-31T22:09:10.022Z,99.90
2022-10-31T22:11:37.090Z,99.90
2022-10-31T22:16:36.308Z,99.90
2022-10-31T22:19:05.871Z,99.90
2022-10-31T22:21:41.994Z,99.90
2022-10-31T22:24:10.451Z,99.90
2022-10-31T22:26:38.889Z,99.90
2022-10-31T22:29:13.923Z,99.90
2022-10-31T22:31:44.874Z,99.90
2022-10-31T22:34:14.783Z,99.90
2022-10-31T22:36:42.443Z,99.90
2022-10-31T22:39:13.340Z,99.90
2022-10-31T22:41:40.444Z,99.90
2022-10-31T22:44:07.580Z,99.90
2022-10-31T22:46:38.651Z,99.90
2022-10-31T22:49:14.870Z,99.90
2022-10-31T22:51:43.400Z,99.90
2022-10-31T22:54:18.299Z,99.90
2022-10-31T22:56:46.466Z,99.90
2022-10-31T22:59:16.410Z,99.90
2022-10-31T23:01:47.148Z,99.90
2022-10-31T23:04:16.551Z,99.90
2022-10-31T23:09:16.091Z,99.90
2022-10-31T23:11:43.796Z,99.90
2022-10-31T23:14:20.899Z,99.90
2022-10-31T23:16:56.650Z,99.90
2022-10-31T23:19:29.550Z,99.90
2022-10-31T23:22:03.840Z,99.90
2022-10-31T23:24:40.159Z,99.90
2022-10-31T23:27:20.471Z,99.90
2022-10-31T23:29:59.562Z,99.90
2022-10-31T23:35:09.932Z,99.90
2022-10-31T23:37:38.838Z,99.90
2022-10-31T23:40:08.618Z,99.90
2022-10-31T23:42:36.039Z,99.90
2022-10-31T23:49:58.069Z,99.90
2022-10-31T23:52:25.210Z,99.90
2022-10-31T23:54:52.176Z,99.90
2022-10-31T23:59:47.768Z,99.90
